Time;durP1;ratioP1;P1;durP2;ratioP2;P2;SDS_P1;SDS_P2;PMS_P1;PMS_P2;Temp;Humidity;BMP_temperature;BMP_pressure;BME280_temperature;BME280_humidity;BME280_pressure;Samples;Min_cycle;Max_cycle;Signal;HPM_P1;HPM_P2
2022/04/12 00:01:08;;;;;;;0.40;0.40;;;;;;;3.47;49.11;99094.16;5074798;28;20444;-61
2022/04/12 00:03:34;;;;;;;10.10;0.98;;;;;;;3.46;49.18;99094.34;5074937;28;20032;-58
2022/04/12 00:06:00;;;;;;;19.75;1.40;;;;;;;3.45;49.13;99088.06;5074121;28;20070;-59
2022/04/12 00:08:25;;;;;;;1.65;0.95;;;;;;;3.46;49.26;99095.19;5074662;28;20029;-59
2022/04/12 00:10:51;;;;;;;1.40;0.70;;;;;;;3.49;49.15;99097.56;5074458;28;20047;-60
2022/04/12 00:13:18;;;;;;;0.40;0.40;;;;;;;3.51;49.04;99100.09;5074222;28;20397;-60
2022/04/12 00:15:44;;;;;;;1.00;0.85;;;;;;;3.46;49.11;99095.19;5074424;28;20085;-59
2022/04/12 00:20:56;;;;;;;0.70;0.70;;;;;;;3.48;49.17;99098.56;5074097;28;20050;-59
2022/04/12 00:23:22;;;;;;;0.65;0.65;;;;;;;3.45;49.13;99095.38;5074229;28;20036;-59
2022/04/12 00:25:47;;;;;;;0.38;0.38;;;;;;;3.44;49.07;99102.66;5074249;28;20460;-59
2022/04/12 00:28:14;;;;;;;0.77;0.77;;;;;;;3.44;49.20;99091.81;5074549;28;20348;-60
2022/04/12 00:30:40;;;;;;;1.17;0.60;;;;;;;3.45;49.38;99090.78;5074237;28;20411;-59
2022/04/12 00:33:06;;;;;;;0.47;0.43;;;;;;;3.43;49.20;99105.56;5074099;28;20388;-60
2022/04/12 00:35:32;;;;;;;0.77;0.77;;;;;;;3.41;49.39;99099.47;5073822;28;20094;-60
2022/04/12 00:37:58;;;;;;;1.38;1.15;;;;;;;3.37;49.35;99098.16;5074235;28;20064;-59
2022/04/12 00:40:24;;;;;;;1.33;1.23;;;;;;;3.32;49.58;99093.28;5073984;28;20091;-60
2022/04/12 00:42:51;;;;;;;0.80;0.80;;;;;;;3.25;49.81;99084.16;5073944;28;20033;-59
2022/04/12 00:45:17;;;;;;;0.80;0.60;;;;;;;3.21;49.84;99090.97;5073771;28;20040;-60
2022/04/12 00:47:44;;;;;;;1.38;1.27;;;;;;;3.16;50.17;99086.09;5073820;28;20032;-61
2022/04/12 00:50:11;;;;;;;2.03;1.35;;;;;;;3.12;50.03;99084.75;5074069;28;20445;-60
2022/04/12 00:52:40;;;;;;;1.35;1.25;;;;;;;3.09;50.19;99085.13;5073604;28;20119;-60
2022/04/12 00:55:06;;;;;;;5.20;1.40;;;;;;;3.08;50.10;99083.44;5073698;28;20041;-61
2022/04/12 00:57:32;;;;;;;0.70;0.70;;;;;;;3.09;50.15;99082.41;5073982;28;20033;-59
2022/04/12 01:00:00;;;;;;;2.60;1.77;;;;;;;3.10;50.03;99079.50;5073422;28;20044;-59
2022/04/12 01:02:26;;;;;;;1.70;1.60;;;;;;;3.12;50.12;99091.03;5073271;28;20491;-59
2022/04/12 01:04:51;;;;;;;0.30;0.30;;;;;;;3.17;49.95;99085.06;5073869;28;20071;-60
2022/04/12 01:07:18;;;;;;;0.52;0.52;;;;;;;3.26;49.97;99083.97;5073001;28;20111;-59
2022/04/12 01:09:44;;;;;;;8.15;2.58;;;;;;;3.34;49.70;99083.06;5073397;28;20037;-59
2022/04/12 01:12:11;;;;;;;0.43;0.43;;;;;;;3.40;49.60;99073.34;5073287;28;20028;-59
2022/04/12 01:14:37;;;;;;;0.57;0.57;;;;;;;3.55;49.53;99087.84;5073299;28;20029;-59
2022/04/12 01:17:07;;;;;;;0.60;0.60;;;;;;;3.67;49.51;99082.81;5073324;28;20744;-59
2022/04/12 01:19:33;;;;;;;8.25;1.75;;;;;;;3.78;49.10;99087.78;5076105;28;20131;-59
2022/04/12 01:22:05;;;;;;;0.75;0.75;;;;;;;3.84;49.02;99087.06;5093038;28;20080;-59
2022/04/12 01:24:32;;;;;;;5.10;1.05;;;;;;;3.92;49.04;99088.84;5089494;28;20036;-59
2022/04/12 01:26:58;;;;;;;1.25;1.13;;;;;;;4.01;49.03;99089.59;5092371;28;20026;-58
2022/04/12 01:29:25;;;;;;;0.70;0.70;;;;;;;4.07;48.83;99082.59;5093056;28;20044;-59
2022/04/12 01:31:51;;;;;;;15.88;1.95;;;;;;;4.12;49.00;99089.16;5093308;28;20347;-60
2022/04/12 01:34:17;;;;;;;1.42;1.23;;;;;;;4.19;48.91;99084.63;5093252;28;20036;-59
2022/04/12 01:36:43;;;;;;;0.43;0.43;;;;;;;4.28;48.87;99087.28;5092392;28;20024;-59
2022/04/12 01:39:09;;;;;;;0.93;0.85;;;;;;;4.38;48.69;99082.41;5092355;28;20506;-60
2022/04/12 01:41:35;;;;;;;1.50;1.40;;;;;;;4.47;48.50;99086.69;5093015;28;20047;-59
2022/04/12 01:44:00;;;;;;;2.97;1.08;;;;;;;4.57;48.40;99092.69;5098591;28;20023;-57
2022/04/12 01:46:29;;;;;;;1.02;0.88;;;;;;;4.69;48.36;99084.91;5099623;28;20040;-62
2022/04/12 01:48:54;;;;;;;3.67;1.20;;;;;;;4.79;48.15;99095.47;5092664;28;20035;-59
2022/04/12 01:52:00;;;;;;;1.33;0.88;;;;;;;4.88;48.19;99093.50;5103975;28;20466;-60
2022/04/12 01:54:54;;;;;;;0.80;0.80;;;;;;;4.96;48.03;99096.13;5107195;28;20131;-59
2022/04/12 01:57:20;;;;;;;1.20;0.90;;;;;;;5.06;48.02;99106.69;5126844;27;20040;-60
2022/04/12 01:59:45;;;;;;;4.22;0.90;;;;;;;5.17;48.12;99110.81;5100944;28;20130;-59
2022/04/12 02:02:11;;;;;;;4.70;2.25;;;;;;;5.22;47.96;99105.59;5109276;28;20504;-55
2022/04/12 02:04:37;;;;;;;2.10;1.98;;;;;;;5.64;47.32;99111.25;5112324;28;20063;-60
2022/04/12 02:07:03;;;;;;;0.82;0.82;;;;;;;7.12;45.09;99108.41;5106679;28;20088;-62
2022/04/12 02:09:29;;;;;;;0.85;0.85;;;;;;;9.14;41.78;99113.53;5094768;28;20054;-60
2022/04/12 02:11:55;;;;;;;0.40;0.40;;;;;;;10.86;39.35;99109.63;5112186;28;20031;-59
2022/04/12 02:14:22;;;;;;;0.30;0.30;;;;;;;12.32;37.53;99102.22;5077189;28;20035;-60
2022/04/12 02:16:48;;;;;;;0.68;0.47;;;;;;;13.48;36.59;99104.16;5098198;28;20055;-62
2022/04/12 02:19:14;;;;;;;0.90;0.77;;;;;;;14.78;35.57;99093.28;5103633;28;20084;-64
2022/04/12 02:21:40;;;;;;;1.15;0.98;;;;;;;15.55;34.98;99102.53;5110483;28;20031;-60
2022/04/12 02:24:06;;;;;;;0.38;0.38;;;;;;;16.42;34.73;99108.03;5112952;28;20394;-61
2022/04/12 02:26:31;;;;;;;0.77;0.77;;;;;;;17.32;34.08;99105.22;5112942;28;20035;-59
2022/04/12 02:28:57;;;;;;;0.40;0.40;;;;;;;18.13;33.53;99102.88;5110836;28;20031;-60
2022/04/12 02:31:23;;;;;;;3.92;1.42;;;;;;;18.83;33.02;99099.47;5105810;28;20514;-60
2022/04/12 02:33:48;;;;;;;0.32;0.32;;;;;;;;;;5106016;28;20065;-58
2022/04/12 02:36:14;;;;;;;0.70;0.70;;;;;;;20.13;32.56;99098.53;5111486;28;20043;-59
2022/04/12 02:38:39;;;;;;;1.02;1.02;;;;;;;20.78;32.36;99097.41;5110206;28;20033;-57
2022/04/12 02:41:05;;;;;;;1.27;0.90;;;;;;;21.43;31.77;99095.25;5095464;28;20087;-61
2022/04/12 02:43:31;;;;;;;0.45;0.45;;;;;;;22.08;31.37;99104.94;5104190;28;20518;-58
2022/04/12 02:45:58;;;;;;;0.73;0.65;;;;;;;22.68;31.30;99102.25;5098968;28;20561;-58
2022/04/12 02:48:24;;;;;;;1.13;1.05;;;;;;;23.30;30.98;99089.03;5104074;28;20028;-60
2022/04/12 02:50:50;;;;;;;0.30;0.30;;;;;;;24.48;29.71;99089.94;5091781;28;20082;-61
2022/04/12 02:53:16;;;;;;;0.40;0.40;;;;;;;25.16;29.92;99095.41;5095931;28;20115;-59
2022/04/12 02:55:42;;;;;;;0.40;0.40;;;;;;;25.83;28.95;99093.41;5094731;28;20062;-59
2022/04/12 02:58:07;;;;;;;1.48;0.68;;;;;;;25.98;29.46;99092.09;5100793;28;20097;-60
2022/04/12 03:00:34;;;;;;;0.35;0.35;;;;;;;26.37;29.13;99092.28;5095693;28;20036;-58
2022/04/12 03:02:59;;;;;;;0.57;0.50;;;;;;;27.14;28.91;99094.38;5091872;28;20028;-57
2022/04/12 03:05:25;;;;;;;2.10;1.15;;;;;;;27.38;28.82;99088.13;5099746;28;20031;-57
2022/04/12 03:07:50;;;;;;;0.30;0.30;;;;;;;27.69;28.71;99090.56;5101750;28;20048;-58
2022/04/12 03:10:16;;;;;;;0.80;0.60;;;;;;;27.84;28.93;99083.53;5092031;28;20039;-60
2022/04/12 03:12:42;;;;;;;0.45;0.45;;;;;;;27.90;29.12;99086.94;5091112;28;20074;-57
2022/04/12 03:15:09;;;;;;;0.63;0.63;;;;;;;27.98;29.02;99079.63;5091489;28;20039;-56
2022/04/12 03:17:35;;;;;;;0.30;0.30;;;;;;;27.98;29.27;99091.72;5090733;28;20035;-58
2022/04/12 03:20:00;;;;;;;1.40;0.75;;;;;;;27.98;29.18;99094.56;5095593;28;20032;-62
2022/04/12 03:22:26;;;;;;;0.63;0.50;;;;;;;28.07;29.35;99097.31;5104010;28;20553;-59
2022/04/12 03:24:52;;;;;;;0.40;0.40;;;;;;;28.19;29.28;99086.06;5094699;28;20065;-58
2022/04/12 03:27:17;;;;;;;0.63;0.63;;;;;;;28.48;29.04;99087.13;5091855;28;20119;-61
2022/04/12 03:29:43;;;;;;;0.47;0.47;;;;;;;28.80;28.80;99087.47;5092027;28;20051;-60
2022/04/12 03:32:09;;;;;;;1.13;0.80;;;;;;;29.01;28.64;99090.19;5091330;28;20031;-58
2022/04/12 03:34:36;;;;;;;0.47;0.47;;;;;;;29.24;28.53;99093.44;5089552;28;20043;-59
2022/04/12 03:37:02;;;;;;;1.60;1.50;;;;;;;29.57;28.05;99098.13;5106271;28;20084;-58
2022/04/12 03:39:28;;;;;;;0.60;0.60;;;;;;;29.80;27.91;99086.28;5111859;28;20146;-58
2022/04/12 03:41:54;;;;;;;0.70;0.70;;;;;;;29.92;27.92;99083.47;5112109;28;20184;-57
2022/04/12 03:44:19;;;;;;;0.30;0.30;;;;;;;29.98;27.88;99087.69;5112367;28;20482;-57
2022/04/12 03:46:45;;;;;;;0.50;0.50;;;;;;;29.80;28.08;99080.63;5112428;28;20023;-58
2022/04/12 03:49:11;;;;;;;0.60;0.50;;;;;;;29.59;28.17;99084.44;5089168;28;20032;-59
2022/04/12 03:51:37;;;;;;;0.65;0.60;;;;;;;29.42;28.18;99076.22;5073839;28;20036;-59
2022/04/12 03:54:04;;;;;;;0.88;0.88;;;;;;;29.74;27.93;99076.38;5073859;28;20075;-59
2022/04/12 03:56:30;;;;;;;0.60;0.60;;;;;;;29.44;28.18;99085.16;5073747;28;20024;-58
2022/04/12 03:58:59;;;;;;;0.30;0.30;;;;;;;29.71;27.82;99087.25;5073865;28;20086;-58
2022/04/12 04:01:25;;;;;;;0.63;0.63;;;;;;;29.55;27.76;99086.34;5073736;28;20036;-58
2022/04/12 04:03:51;;;;;;;6.25;1.00;;;;;;;27.60;30.10;99090.63;5073220;28;20492;-59
2022/04/12 04:06:17;;;;;;;1.10;0.88;;;;;;;25.17;32.91;99099.84;5073109;28;20116;-59
2022/04/12 04:08:43;;;;;;;0.75;0.60;;;;;;;23.19;34.92;99094.00;5073564;28;20039;-58
2022/04/12 04:11:08;;;;;;;1.77;1.42;;;;;;;21.64;36.80;99102.25;5073333;28;20036;-59
2022/04/12 04:13:36;;;;;;;2.05;1.17;;;;;;;20.55;37.55;99115.75;5073477;28;20052;-58
2022/04/12 04:16:05;;;;;;;0.93;0.85;;;;;;;19.69;37.85;99112.50;5073210;28;20456;-57
2022/04/12 04:18:32;;;;;;;0.50;0.50;;;;;;;18.94;38.65;99108.66;5073324;28;20047;-61
2022/04/12 04:20:58;;;;;;;0.73;0.52;;;;;;;20.40;35.51;99111.13;5073445;28;20120;-57
2022/04/12 04:23:23;;;;;;;1.58;0.65;;;;;;;22.05;32.68;99115.63;5072034;28;20405;-59
2022/04/12 04:25:49;;;;;;;1.08;0.98;;;;;;;21.91;32.56;99123.09;5073418;28;20567;-59
2022/04/12 04:28:21;;;;;;;4.65;1.60;;;;;;;20.88;33.67;99120.78;5073062;28;20044;-59
2022/04/12 04:30:50;;;;;;;1.60;1.05;;;;;;;19.56;35.20;99122.31;5073081;28;20115;-60
2022/04/12 04:33:19;;;;;;;1.15;0.63;;;;;;;18.49;36.26;99125.13;5073240;28;20439;-59
2022/04/12 04:35:46;;;;;;;0.95;0.93;;;;;;;17.49;37.28;99126.34;5072779;28;20123;-57
2022/04/12 04:38:12;;;;;;;1.80;1.30;;;;;;;16.42;38.30;99133.81;5072892;28;20048;-59
2022/04/12 04:40:38;;;;;;;2.92;1.05;;;;;;;16.01;38.63;99130.69;5072774;28;20542;-60
2022/04/12 04:43:04;;;;;;;0.55;0.55;;;;;;;15.71;38.52;99126.50;5072677;28;20040;-58
2022/04/12 04:45:30;;;;;;;1.52;1.02;;;;;;;15.19;38.29;99132.53;5072829;28;20518;-58
2022/04/12 04:47:58;;;;;;;1.98;1.55;;;;;;;14.63;39.03;99121.56;5075487;28;20460;-57
2022/04/12 04:50:26;;;;;;;1.77;1.20;;;;;;;14.19;38.83;99124.97;5081426;28;20067;-60
2022/04/12 04:52:52;;;;;;;1.13;0.75;;;;;;;13.56;39.40;99133.28;5072755;28;20406;-59
2022/04/12 04:55:19;;;;;;;4.47;1.85;;;;;;;13.44;39.09;99129.72;5072955;28;20094;-60
2022/04/12 04:57:46;;;;;;;1.95;0.60;;;;;;;13.18;39.04;99122.84;5072396;28;20039;-58
2022/04/12 05:00:15;;;;;;;1.15;0.80;;;;;;;13.22;38.44;99124.88;5069985;28;20028;-59
2022/04/12 05:02:49;;;;;;;1.05;0.95;;;;;;;13.49;37.87;99121.56;5071886;28;20185;-60
2022/04/12 05:05:16;;;;;;;0.70;0.70;;;;;;;13.74;37.22;99112.09;5072375;28;20044;-59
2022/04/12 05:07:44;;;;;;;1.75;1.17;;;;;;;13.87;36.71;99116.44;5072348;28;20391;-58
2022/04/12 05:10:14;;;;;;;1.08;0.98;;;;;;;13.88;36.08;99115.34;5071983;28;20042;-59
2022/04/12 05:12:40;;;;;;;3.30;1.20;;;;;;;13.92;36.01;99120.13;5082688;28;20394;-58
2022/04/12 05:15:06;;;;;;;1.85;1.05;;;;;;;13.91;35.69;99112.91;5092389;28;20375;-60
2022/04/12 05:17:32;;;;;;;1.27;1.17;;;;;;;13.95;35.94;99124.31;5091048;28;20225;-59
2022/04/12 05:19:57;;;;;;;0.55;0.55;;;;;;;14.12;35.27;99113.25;5090695;28;20378;-55
2022/04/12 05:22:23;;;;;;;2.22;0.85;;;;;;;14.19;35.01;99106.50;5092073;28;20026;-61
2022/04/12 05:24:49;;;;;;;0.60;0.60;;;;;;;14.52;34.55;99106.72;5092455;28;20020;-59
2022/04/12 05:27:15;;;;;;;0.80;0.80;;;;;;;14.85;34.20;99110.53;5092145;28;20481;-59
2022/04/12 05:29:42;;;;;;;0.75;0.75;;;;;;;14.91;34.35;99115.03;5092377;28;20119;-60
2022/04/12 05:32:09;;;;;;;2.08;1.08;;;;;;;15.05;33.75;99112.75;5092533;28;20116;-57
2022/04/12 05:34:39;;;;;;;0.60;0.60;;;;;;;15.37;33.42;99115.63;5092291;28;20070;-60
2022/04/12 05:37:05;;;;;;;1.17;1.08;;;;;;;15.63;33.28;99118.66;5091433;28;20119;-60
2022/04/12 05:39:31;;;;;;;2.83;1.30;;;;;;;15.72;32.81;99113.50;5092197;28;20110;-58
2022/04/12 05:42:00;;;;;;;1.80;1.70;;;;;;;15.81;32.83;99108.34;5092175;28;20443;-61
2022/04/12 05:44:33;;;;;;;0.50;0.50;;;;;;;16.13;32.57;99118.63;5092437;28;20031;-62
2022/04/12 05:47:03;;;;;;;2.50;1.00;;;;;;;16.13;32.56;99107.53;5090379;28;20146;-58
2022/04/12 05:49:29;;;;;;;0.70;0.70;;;;;;;16.18;32.50;99110.34;5079294;28;20097;-60
2022/04/12 05:51:56;;;;;;;0.75;0.75;;;;;;;15.94;32.92;99107.91;5092056;28;20043;-60
2022/04/12 05:54:22;;;;;;;1.35;1.02;;;;;;;15.48;33.45;99108.25;5091932;28;20044;-57
2022/04/12 05:56:48;;;;;;;1.20;0.77;;;;;;;15.15;33.69;99093.50;5092017;28;20028;-57
2022/04/12 05:59:14;;;;;;;0.50;0.50;;;;;;;14.96;34.20;99098.53;5091373;28;20032;-59
2022/04/12 06:01:40;;;;;;;0.40;0.40;;;;;;;14.53;34.44;99091.81;5091807;28;20043;-57
2022/04/12 06:04:06;;;;;;;1.13;0.70;;;;;;;14.17;35.09;99080.22;5091385;28;20383;-59
2022/04/12 06:06:32;;;;;;;0.88;0.88;;;;;;;13.95;35.19;99086.50;5091340;28;20039;-59
2022/04/12 06:08:59;;;;;;;0.65;0.65;;;;;;;13.76;35.30;99090.59;5091683;28;20055;-61
2022/04/12 06:11:25;;;;;;;0.70;0.70;;;;;;;13.28;35.64;99082.50;5090118;28;20409;-60
2022/04/12 06:13:50;;;;;;;1.75;1.30;;;;;;;13.04;35.72;99083.66;5091705;28;20027;-61
2022/04/12 06:16:16;;;;;;;0.63;0.63;;;;;;;12.95;35.84;99084.03;5091958;28;20427;-60
2022/04/12 06:18:42;;;;;;;0.70;0.70;;;;;;;12.76;35.74;99077.03;5091265;28;20141;-60
2022/04/12 06:21:07;;;;;;;1.05;0.65;;;;;;;12.44;36.03;99072.75;5089299;28;20405;-60
2022/04/12 06:23:33;;;;;;;2.85;1.65;;;;;;;12.18;36.33;99076.00;5090293;28;20028;-60
2022/04/12 06:25:59;;;;;;;0.57;0.57;;;;;;;12.03;36.14;99080.06;5090643;28;20394;-60
2022/04/12 06:28:24;;;;;;;0.90;0.90;;;;;;;11.98;36.07;99081.84;5090349;28;20453;-60
2022/04/12 06:30:51;;;;;;;0.90;0.70;;;;;;;11.97;35.88;99074.66;5089995;28;20034;-59
2022/04/12 06:33:17;;;;;;;2.58;1.23;;;;;;;11.99;35.49;99076.09;5090281;28;20038;-58
2022/04/12 06:35:42;;;;;;;0.57;0.57;;;;;;;12.03;35.60;99073.72;5089793;28;20031;-59
2022/04/12 06:38:10;;;;;;;2.30;0.77;;;;;;;11.94;35.13;99075.13;5090023;28;20036;-61
2022/04/12 06:40:35;;;;;;;0.60;0.60;;;;;;;11.86;35.44;99071.63;5090477;28;20075;-60
2022/04/12 06:43:02;;;;;;;0.32;0.32;;;;;;;11.87;35.05;99077.97;5090204;28;20482;-59
2022/04/12 06:45:29;;;;;;;0.88;0.57;;;;;;;11.82;35.07;99075.94;5089294;28;20039;-60
2022/04/12 06:47:58;;;;;;;0.82;0.57;;;;;;;11.82;34.81;99072.34;5084274;28;20036;-60
2022/04/12 06:50:24;;;;;;;1.10;1.00;;;;;;;11.83;34.95;99079.53;5078669;28;20173;-59
2022/04/12 06:52:51;;;;;;;0.60;0.60;;;;;;;11.84;34.83;99071.03;5069971;28;20033;-62
2022/04/12 06:55:16;;;;;;;1.05;0.73;;;;;;;11.84;34.73;99076.53;5069827;28;20024;-60
2022/04/12 06:57:43;;;;;;;0.45;0.45;;;;;;;11.87;34.48;99067.81;5069702;28;20051;-61
2022/04/12 07:00:10;;;;;;;0.73;0.50;;;;;;;11.90;34.39;99061.81;5069662;28;20032;-58
2022/04/12 07:02:37;;;;;;;0.32;0.32;;;;;;;11.97;34.28;99067.25;5069567;28;20040;-62
2022/04/12 07:05:04;;;;;;;21.45;1.42;;;;;;;12.00;34.14;99064.03;5069170;28;20028;-61
2022/04/12 07:07:30;;;;;;;0.85;0.85;;;;;;;12.11;34.05;99065.09;5069844;28;20025;-59
2022/04/12 07:09:56;;;;;;;0.50;0.50;;;;;;;12.15;33.83;99074.56;5069782;28;20072;-61
2022/04/12 07:12:23;;;;;;;1.48;1.38;;;;;;;12.12;33.90;99063.19;5077438;28;20093;-60
2022/04/12 07:14:49;;;;;;;0.40;0.40;;;;;;;12.10;33.79;99060.66;5090126;28;20028;-61
2022/04/12 07:17:15;;;;;;;2.80;1.45;;;;;;;12.07;33.75;99058.41;5089687;28;20536;-60
2022/04/12 07:19:40;;;;;;;0.75;0.75;;;;;;;12.07;33.72;99069.41;5090682;28;20058;-59
2022/04/12 07:22:07;;;;;;;1.52;1.42;;;;;;;12.09;33.85;99076.34;5090367;28;20031;-60
2022/04/12 07:24:33;;;;;;;0.65;0.55;;;;;;;12.05;33.30;99071.56;5093468;28;20502;-61
2022/04/12 07:26:59;;;;;;;1.42;0.75;;;;;;;12.00;33.60;99057.66;5091683;28;20064;-58
2022/04/12 07:29:24;;;;;;;0.80;0.75;;;;;;;12.06;33.60;99056.75;5092759;28;20089;-59
2022/04/12 07:31:50;;;;;;;0.32;0.32;;;;;;;12.08;33.60;99063.66;5090985;28;20059;-60
2022/04/12 07:34:16;;;;;;;1.13;0.55;;;;;;;12.13;33.40;99060.22;5092480;28;20039;-61
2022/04/12 07:36:47;;;;;;;0.47;0.40;;;;;;;12.14;33.39;99048.09;5094167;28;20040;-60
2022/04/12 07:39:16;;;;;;;1.08;0.98;;;;;;;12.21;33.49;99042.50;5092706;28;20036;-60
2022/04/12 07:41:42;;;;;;;0.80;0.80;;;;;;;12.26;33.48;99046.22;5093829;28;20460;-60
2022/04/12 07:44:08;;;;;;;0.73;0.73;;;;;;;12.38;33.05;99037.06;5092465;28;20038;-61
2022/04/12 07:46:34;;;;;;;0.20;0.20;;;;;;;12.50;32.99;99037.91;5091655;28;20035;-60
2022/04/12 07:48:59;;;;;;;0.73;0.73;;;;;;;12.55;32.84;99032.50;5094061;28;20515;-62
2022/04/12 07:51:25;;;;;;;2.10;0.90;;;;;;;12.54;32.79;99025.31;5093601;28;20435;-61
2022/04/12 07:53:51;;;;;;;0.32;0.32;;;;;;;12.56;33.00;99042.47;5094493;28;20032;-60
2022/04/12 07:56:17;;;;;;;0.30;0.30;;;;;;;12.52;32.79;99027.50;5092995;28;20032;-59
2022/04/12 07:58:43;;;;;;;0.73;0.73;;;;;;;12.55;32.57;99023.41;5093782;28;20032;-56
2022/04/12 08:01:08;;;;;;;0.43;0.43;;;;;;;12.64;32.68;99023.88;5094202;28;20509;-58
2022/04/12 08:03:36;;;;;;;0.95;0.95;;;;;;;12.71;32.64;99035.59;5093885;28;20016;-59
2022/04/12 08:06:02;;;;;;;0.25;0.25;;;;;;;12.80;32.59;99021.19;5093728;28;20059;-60
2022/04/12 08:08:29;;;;;;;0.35;0.35;;;;;;;12.87;32.37;99037.59;5094005;28;20067;-59
2022/04/12 08:10:54;;;;;;;0.80;0.75;;;;;;;12.91;32.35;99044.28;5093600;28;20035;-59
2022/04/12 08:13:20;;;;;;;1.02;0.93;;;;;;;12.91;32.24;99030.50;5093820;28;20490;-61
2022/04/12 08:15:46;;;;;;;0.65;0.65;;;;;;;12.94;32.69;99029.16;5093551;28;20092;-59
2022/04/12 08:18:12;;;;;;;1.08;1.00;;;;;;;12.99;32.39;99033.97;5094790;28;20032;-60
2022/04/12 08:20:37;;;;;;;5.35;0.73;;;;;;;13.06;32.22;99031.88;5094665;28;20028;-63
2022/04/12 08:23:03;;;;;;;0.28;0.28;;;;;;;13.10;32.08;99025.66;5094610;28;20024;-59
2022/04/12 08:25:29;;;;;;;0.40;0.40;;;;;;;13.17;32.35;99022.72;5094532;28;20057;-60
2022/04/12 08:27:55;;;;;;;0.75;0.75;;;;;;;13.18;32.33;99035.44;5094375;28;20085;-58
2022/04/12 08:30:21;;;;;;;0.40;0.30;;;;;;;13.20;32.22;99004.88;5094304;28;20054;-60
2022/04/12 08:32:47;;;;;;;0.75;0.75;;;;;;;13.25;32.08;99019.59;5094533;28;20031;-61
2022/04/12 08:35:13;;;;;;;0.50;0.50;;;;;;;13.31;32.09;99017.75;5094257;28;20024;-60
2022/04/12 08:37:39;;;;;;;1.65;0.70;;;;;;;13.37;32.21;99007.66;5094395;28;20111;-60
2022/04/12 08:40:05;;;;;;;0.40;0.40;;;;;;;13.37;32.00;99005.75;5094245;28;20137;-60
2022/04/12 08:42:31;;;;;;;0.57;0.57;;;;;;;13.37;32.11;99011.28;5094698;28;20039;-58
2022/04/12 08:45:01;;;;;;;0.35;0.35;;;;;;;13.38;32.34;99012.94;5094298;28;20055;-61
2022/04/12 08:47:28;;;;;;;3.60;0.57;;;;;;;13.45;32.05;99001.75;5094095;28;20064;-60
2022/04/12 08:49:54;;;;;;;1.05;0.75;;;;;;;13.49;31.95;99012.03;5094151;28;20043;-60
2022/04/12 08:52:22;;;;;;;0.30;0.30;;;;;;;13.54;32.14;99005.75;5094218;28;20068;-60
2022/04/12 08:54:48;;;;;;;0.40;0.40;;;;;;;13.56;31.98;98994.47;5094457;28;20394;-61
2022/04/12 08:57:14;;;;;;;0.52;0.52;;;;;;;13.54;31.90;99015.97;5093827;28;20032;-60
2022/04/12 08:59:41;;;;;;;0.88;0.88;;;;;;;13.57;31.98;99009.97;5093977;28;20039;-59
2022/04/12 09:02:10;;;;;;;0.77;0.77;;;;;;;13.61;31.69;99009.19;5093770;28;20036;-58
2022/04/12 09:04:36;;;;;;;0.32;0.32;;;;;;;13.63;31.86;98998.78;5093833;28;20085;-60
2022/04/12 09:07:07;;;;;;;2.97;0.85;;;;;;;13.66;31.87;98987.22;5093160;28;20040;-60
2022/04/12 09:09:33;;;;;;;0.32;0.32;;;;;;;13.68;31.76;99000.78;5093842;28;20036;-59
2022/04/12 09:12:09;;;;;;;0.45;0.45;;;;;;;13.75;31.65;98995.06;5093428;28;20054;-59
2022/04/12 09:14:40;;;;;;;0.45;0.45;;;;;;;13.70;31.74;98993.06;5092418;28;20031;-61
2022/04/12 09:17:09;;;;;;;0.30;0.30;;;;;;;13.73;31.83;98998.09;5093817;28;20032;-60
2022/04/12 09:19:45;;;;;;;0.30;0.30;;;;;;;13.79;31.84;98997.06;5093765;28;20061;-59
2022/04/12 09:22:12;;;;;;;0.40;0.40;;;;;;;13.79;31.56;98996.25;5093422;28;20423;-60
2022/04/12 09:24:56;;;;;;;0.88;0.88;;;;;;;13.73;31.39;98997.25;5093251;28;20036;-60
2022/04/12 09:27:24;;;;;;;0.70;0.70;;;;;;;13.66;31.77;98998.25;5092392;28;20077;-61
2022/04/12 09:29:55;;;;;;;1.08;0.50;;;;;;;13.61;32.00;98995.41;5079094;28;20040;-60
2022/04/12 09:32:23;;;;;;;0.22;0.22;;;;;;;13.45;31.75;98999.00;5071656;28;20138;-61
2022/04/12 09:34:50;;;;;;;0.38;0.38;;;;;;;13.33;31.90;98991.59;5073099;28;20035;-61
2022/04/12 09:37:24;;;;;;;1.65;1.13;;;;;;;13.29;32.28;98995.09;5072318;28;20052;-60
2022/04/12 09:40:00;;;;;;;0.28;0.28;;;;;;;13.26;32.17;98988.16;5072771;28;20072;-60
2022/04/12 09:43:01;;;;;;;1.20;0.70;;;;;;;13.20;31.81;98983.63;5072991;28;20037;-60
2022/04/12 09:45:31;;;;;;;0.40;0.40;;;;;;;13.16;32.01;98987.97;5061042;28;20558;-60
2022/04/12 09:48:01;;;;;;;0.77;0.77;;;;;;;13.19;31.88;98995.75;5105338;28;20402;-60
2022/04/12 09:50:29;;;;;;;0.30;0.30;;;;;;;13.27;31.79;98989.81;5105114;28;20048;-60
2022/04/12 09:53:09;;;;;;;0.65;0.50;;;;;;;13.33;31.46;98994.34;5071229;28;20086;-62
2022/04/12 09:55:49;;;;;;;1.02;0.80;;;;;;;13.41;31.35;98984.03;5078893;28;20040;-59
2022/04/12 09:58:22;;;;;;;0.93;0.60;;;;;;;13.43;31.32;98990.16;5097910;28;20119;-60
2022/04/12 10:00:48;;;;;;;0.35;0.35;;;;;;;13.42;31.44;98985.72;5097876;28;20032;-62
2022/04/12 10:03:17;;;;;;;0.50;0.50;;;;;;;13.47;31.14;98969.22;5105043;28;20027;-61
2022/04/12 10:05:44;;;;;;;0.30;0.30;;;;;;;13.52;31.34;98963.81;5102142;28;20378;-60
2022/04/12 10:08:12;;;;;;;0.35;0.35;;;;;;;13.65;30.79;98970.94;5112592;28;20028;-59
2022/04/12 10:10:44;;;;;;;0.55;0.20;;;;;;;13.77;31.00;98962.56;5113057;28;20112;-60
2022/04/12 10:13:12;;;;;;;0.55;0.52;;;;;;;13.83;30.73;98964.31;5111482;28;20046;-61
2022/04/12 10:15:38;;;;;;;0.30;0.30;;;;;;;13.83;30.78;98962.38;5113065;28;20031;-65
2022/04/12 10:18:04;;;;;;;4.15;0.80;;;;;;;13.88;30.80;98972.66;5112912;28;20061;-61
2022/04/12 10:20:31;;;;;;;0.70;0.70;;;;;;;13.93;30.79;98963.63;5110398;28;20031;-63
2022/04/12 10:22:58;;;;;;;0.45;0.45;;;;;;;13.96;30.73;98952.91;5112321;28;20542;-62
2022/04/12 10:25:25;;;;;;;0.20;0.20;;;;;;;14.05;30.48;98952.47;5111803;28;20039;-62
2022/04/12 10:27:58;;;;;;;0.40;0.40;;;;;;;14.06;30.64;98957.75;5112336;28;20043;-58
2022/04/12 10:30:26;;;;;;;0.47;0.47;;;;;;;14.07;30.51;98953.06;5112853;28;20038;-61
2022/04/12 10:33:00;;;;;;;0.43;0.43;;;;;;;14.01;30.58;98958.50;5112225;28;20035;-62
2022/04/12 10:35:51;;;;;;;0.20;0.20;;;;;;;13.98;30.63;98967.28;5111962;28;20496;-60
2022/04/12 10:38:18;;;;;;;2.47;0.65;;;;;;;13.87;30.56;98951.69;5103683;28;20042;-61
2022/04/12 10:40:49;;;;;;;0.20;0.20;;;;;;;13.81;30.62;98953.50;5111704;28;20052;-63
2022/04/12 10:43:22;;;;;;;0.30;0.30;;;;;;;13.81;30.94;98955.44;5112600;28;20169;-65
2022/04/12 10:45:50;;;;;;;0.40;0.40;;;;;;;13.87;30.69;98951.69;5112520;28;20035;-62
2022/04/12 10:48:23;;;;;;;0.30;0.30;;;;;;;13.93;30.53;98945.13;5112439;28;20092;-62
2022/04/12 10:50:51;;;;;;;0.20;0.20;;;;;;;14.05;30.29;98936.75;5112155;28;20032;-60
2022/04/12 10:53:38;;;;;;;0.65;0.60;;;;;;;14.14;30.42;98928.84;5112242;28;20496;-60
2022/04/12 10:56:11;;;;;;;0.30;0.30;;;;;;;14.18;30.39;98939.13;5113544;28;20125;-60
2022/04/12 10:58:37;;;;;;;0.30;0.30;;;;;;;14.17;30.25;98942.16;5115220;28;20508;-61
2022/04/12 11:01:05;;;;;;;1.42;0.65;;;;;;;14.10;30.36;98941.50;5116702;28;20157;-61
2022/04/12 11:03:45;;;;;;;0.20;0.20;;;;;;;14.09;30.17;98945.34;5116806;28;20058;-61
2022/04/12 11:06:12;;;;;;;0.40;0.40;;;;;;;13.99;30.32;98946.88;5115960;28;20095;-62
2022/04/12 11:08:38;;;;;;;0.38;0.38;;;;;;;13.88;30.48;98946.97;5116490;28;20027;-60
2022/04/12 11:11:06;;;;;;;1.17;0.50;;;;;;;13.90;30.27;98942.03;5116496;28;20043;-61
2022/04/12 11:13:33;;;;;;;0.20;0.20;;;;;;;13.91;30.52;98930.72;5116710;28;20039;-65
2022/04/12 11:16:19;;;;;;;0.30;0.30;;;;;;;13.90;30.48;98947.56;5116181;28;20024;-61
2022/04/12 11:18:56;;;;;;;0.50;0.50;;;;;;;13.88;30.28;98928.47;5116686;28;20469;-63
2022/04/12 11:21:26;;;;;;;0.60;0.60;;;;;;;13.87;30.32;98948.91;5116192;28;20549;-60
2022/04/12 11:23:57;;;;;;;0.38;0.30;;;;;;;13.84;30.33;98935.63;5116250;28;20054;-61
2022/04/12 11:26:40;;;;;;;1.00;0.85;;;;;;;13.84;30.60;98932.88;5116426;28;20762;-63
2022/04/12 11:29:22;;;;;;;0.30;0.30;;;;;;;13.82;30.71;98929.50;5116413;28;20044;-60
2022/04/12 11:31:50;;;;;;;0.47;0.47;;;;;;;13.82;30.62;98926.75;5115911;28;20038;-61
2022/04/12 11:34:18;;;;;;;1.90;0.60;;;;;;;13.84;30.61;98924.59;5116578;28;20046;-61
2022/04/12 11:36:50;;;;;;;0.22;0.22;;;;;;;13.92;30.37;98920.53;5113914;28;20508;-64
2022/04/12 11:39:30;;;;;;;0.50;0.50;;;;;;;13.96;30.58;98930.81;5115732;28;20492;-59
2022/04/12 11:41:58;;;;;;;3.00;0.70;;;;;;;13.95;30.29;98925.56;5116029;28;20024;-60